sensor_id;sensor_type;location;lat;lon;timestamp;P1;durP1;ratioP1;P2;durP2;ratioP2
37288;SDS011;23174;49.462;11.000;2023-02-16T00:00:46;20.13;;;18.00;;
37288;SDS011;23174;49.462;11.000;2023-02-16T00:02:47;21.33;;;18.50;;
37288;SDS011;23174;49.462;11.000;2023-02-16T00:04:48;20.38;;;18.23;;
37288;SDS011;23174;49.462;11.000;2023-02-16T00:06:48;19.42;;;17.38;;
37288;SDS011;23174;49.462;11.000;2023-02-16T00:08:51;20.58;;;18.42;;
37288;SDS011;23174;49.462;11.000;2023-02-16T00:10:53;22.58;;;19.38;;
37288;SDS011;23174;49.462;11.000;2023-02-16T00:13:24;23.00;;;18.83;;
37288;SDS011;23174;49.462;11.000;2023-02-16T00:15:46;20.75;;;18.13;;
37288;SDS011;23174;49.462;11.000;2023-02-16T00:17:47;21.67;;;19.38;;
37288;SDS011;23174;49.462;11.000;2023-02-16T00:19:47;20.42;;;18.15;;
37288;SDS011;23174;49.462;11.000;2023-02-16T00:21:48;20.02;;;17.95;;
37288;SDS011;23174;49.462;11.000;2023-02-16T00:23:50;19.20;;;17.15;;
37288;SDS011;23174;49.462;11.000;2023-02-16T00:25:51;19.90;;;17.77;;
37288;SDS011;23174;49.462;11.000;2023-02-16T00:27:52;22.50;;;19.73;;
37288;SDS011;23174;49.462;11.000;2023-02-16T00:29:52;20.17;;;18.13;;
37288;SDS011;23174;49.462;11.000;2023-02-16T00:31:53;21.27;;;18.90;;
37288;SDS011;23174;49.462;11.000;2023-02-16T00:33:55;21.70;;;19.40;;
37288;SDS011;23174;49.462;11.000;2023-02-16T00:35:56;23.77;;;19.73;;
37288;SDS011;23174;49.462;11.000;2023-02-16T00:37:56;21.27;;;18.95;;
37288;SDS011;23174;49.462;11.000;2023-02-16T00:39:57;20.65;;;18.45;;
37288;SDS011;23174;49.462;11.000;2023-02-16T00:42:02;21.15;;;18.92;;
37288;SDS011;23174;49.462;11.000;2023-02-16T00:44:11;21.90;;;19.55;;
37288;SDS011;23174;49.462;11.000;2023-02-16T00:46:15;20.65;;;18.40;;
37288;SDS011;23174;49.462;11.000;2023-02-16T00:48:16;20.17;;;18.00;;
37288;SDS011;23174;49.462;11.000;2023-02-16T00:54:32;20.38;;;18.00;;
37288;SDS011;23174;49.462;11.000;2023-02-16T00:56:33;21.27;;;19.00;;
37288;SDS011;23174;49.462;11.000;2023-02-16T00:58:34;21.40;;;19.00;;
37288;SDS011;23174;49.462;11.000;2023-02-16T01:00:35;22.00;;;19.70;;
37288;SDS011;23174;49.462;11.000;2023-02-16T01:02:40;22.58;;;20.00;;
37288;SDS011;23174;49.462;11.000;2023-02-16T01:04:44;23.38;;;20.60;;
37288;SDS011;23174;49.462;11.000;2023-02-16T01:06:45;22.52;;;19.95;;
37288;SDS011;23174;49.462;11.000;2023-02-16T01:09:17;24.05;;;19.55;;
37288;SDS011;23174;49.462;11.000;2023-02-16T01:11:38;22.15;;;19.48;;
37288;SDS011;23174;49.462;11.000;2023-02-16T01:13:48;24.88;;;20.17;;
37288;SDS011;23174;49.462;11.000;2023-02-16T01:15:50;21.67;;;19.33;;
37288;SDS011;23174;49.462;11.000;2023-02-16T01:17:51;22.70;;;20.30;;
37288;SDS011;23174;49.462;11.000;2023-02-16T01:19:51;21.77;;;18.15;;
37288;SDS011;23174;49.462;11.000;2023-02-16T01:21:52;21.23;;;18.92;;
37288;SDS011;23174;49.462;11.000;2023-02-16T01:23:53;23.60;;;20.17;;
37288;SDS011;23174;49.462;11.000;2023-02-16T01:25:53;22.77;;;19.88;;
37288;SDS011;23174;49.462;11.000;2023-02-16T01:27:55;22.60;;;19.20;;
37288;SDS011;23174;49.462;11.000;2023-02-16T01:29:56;22.52;;;19.83;;
37288;SDS011;23174;49.462;11.000;2023-02-16T01:31:56;23.13;;;19.52;;
37288;SDS011;23174;49.462;11.000;2023-02-16T01:33:57;23.77;;;19.60;;
37288;SDS011;23174;49.462;11.000;2023-02-16T01:35:58;24.90;;;20.60;;
37288;SDS011;23174;49.462;11.000;2023-02-16T01:37:58;21.13;;;18.73;;
37288;SDS011;23174;49.462;11.000;2023-02-16T01:39:59;23.20;;;19.40;;
37288;SDS011;23174;49.462;11.000;2023-02-16T01:42:10;23.10;;;20.23;;
37288;SDS011;23174;49.462;11.000;2023-02-16T01:44:34;21.35;;;18.90;;
37288;SDS011;23174;49.462;11.000;2023-02-16T01:46:53;20.17;;;18.00;;
37288;SDS011;23174;49.462;11.000;2023-02-16T01:49:15;22.23;;;19.35;;
37288;SDS011;23174;49.462;11.000;2023-02-16T01:51:22;21.77;;;19.42;;
37288;SDS011;23174;49.462;11.000;2023-02-16T01:53:41;21.25;;;18.77;;
37288;SDS011;23174;49.462;11.000;2023-02-16T01:55:46;22.30;;;19.30;;
37288;SDS011;23174;49.462;11.000;2023-02-16T01:57:54;23.23;;;19.80;;
37288;SDS011;23174;49.462;11.000;2023-02-16T02:00:06;22.40;;;19.30;;
37288;SDS011;23174;49.462;11.000;2023-02-16T02:02:24;21.15;;;18.85;;
37288;SDS011;23174;49.462;11.000;2023-02-16T02:04:44;22.27;;;19.92;;
37288;SDS011;23174;49.462;11.000;2023-02-16T02:07:26;21.23;;;19.00;;
37288;SDS011;23174;49.462;11.000;2023-02-16T02:09:38;23.33;;;19.30;;
37288;SDS011;23174;49.462;11.000;2023-02-16T02:11:50;23.23;;;19.27;;
37288;SDS011;23174;49.462;11.000;2023-02-16T02:15:59;21.13;;;18.88;;
37288;SDS011;23174;49.462;11.000;2023-02-16T02:18:00;22.95;;;19.73;;
37288;SDS011;23174;49.462;11.000;2023-02-16T02:20:08;21.25;;;18.67;;
37288;SDS011;23174;49.462;11.000;2023-02-16T02:22:54;22.92;;;19.83;;
37288;SDS011;23174;49.462;11.000;2023-02-16T02:25:34;24.65;;;21.35;;
37288;SDS011;23174;49.462;11.000;2023-02-16T02:27:45;21.50;;;19.17;;
37288;SDS011;23174;49.462;11.000;2023-02-16T02:29:58;22.35;;;19.52;;
37288;SDS011;23174;49.462;11.000;2023-02-16T02:32:30;21.35;;;18.60;;
37288;SDS011;23174;49.462;11.000;2023-02-16T02:39:14;22.45;;;19.13;;
37288;SDS011;23174;49.462;11.000;2023-02-16T02:41:54;20.63;;;18.30;;
37288;SDS011;23174;49.462;11.000;2023-02-16T02:44:09;22.55;;;19.27;;
37288;SDS011;23174;49.462;11.000;2023-02-16T02:46:17;23.02;;;19.75;;
37288;SDS011;23174;49.462;11.000;2023-02-16T02:48:28;23.33;;;20.83;;
37288;SDS011;23174;49.462;11.000;2023-02-16T02:53:11;23.85;;;20.48;;
37288;SDS011;23174;49.462;11.000;2023-02-16T02:55:13;24.00;;;20.27;;
37288;SDS011;23174;49.462;11.000;2023-02-16T02:57:34;22.35;;;19.85;;
37288;SDS011;23174;49.462;11.000;2023-02-16T02:59:59;25.35;;;19.70;;
37288;SDS011;23174;49.462;11.000;2023-02-16T03:02:22;21.80;;;19.33;;
37288;SDS011;23174;49.462;11.000;2023-02-16T03:04:25;23.10;;;19.98;;
37288;SDS011;23174;49.462;11.000;2023-02-16T03:06:31;22.08;;;19.67;;
37288;SDS011;23174;49.462;11.000;2023-02-16T03:08:36;22.77;;;19.75;;
37288;SDS011;23174;49.462;11.000;2023-02-16T03:10:45;22.98;;;20.10;;
37288;SDS011;23174;49.462;11.000;2023-02-16T03:13:11;24.85;;;20.80;;
37288;SDS011;23174;49.462;11.000;2023-02-16T03:15:16;24.23;;;19.92;;
37288;SDS011;23174;49.462;11.000;2023-02-16T03:17:17;22.42;;;19.23;;
37288;SDS011;23174;49.462;11.000;2023-02-16T03:19:39;23.60;;;20.02;;
37288;SDS011;23174;49.462;11.000;2023-02-16T03:22:01;21.20;;;18.88;;
37288;SDS011;23174;49.462;11.000;2023-02-16T03:24:22;25.38;;;21.05;;
37288;SDS011;23174;49.462;11.000;2023-02-16T03:26:44;24.33;;;20.23;;
37288;SDS011;23174;49.462;11.000;2023-02-16T03:29:06;22.15;;;19.73;;
37288;SDS011;23174;49.462;11.000;2023-02-16T03:31:18;22.70;;;19.80;;
37288;SDS011;23174;49.462;11.000;2023-02-16T03:33:22;24.52;;;19.80;;
37288;SDS011;23174;49.462;11.000;2023-02-16T03:35:23;20.98;;;18.67;;
37288;SDS011;23174;49.462;11.000;2023-02-16T03:37:25;24.38;;;19.73;;
37288;SDS011;23174;49.462;11.000;2023-02-16T03:39:26;22.27;;;19.65;;
37288;SDS011;23174;49.462;11.000;2023-02-16T03:41:31;23.67;;;19.77;;
37288;SDS011;23174;49.462;11.000;2023-02-16T03:43:34;23.08;;;20.33;;
37288;SDS011;23174;49.462;11.000;2023-02-16T03:45:37;25.60;;;20.75;;
37288;SDS011;23174;49.462;11.000;2023-02-16T03:47:39;23.88;;;20.63;;
37288;SDS011;23174;49.462;11.000;2023-02-16T03:49:40;22.40;;;19.88;;
37288;SDS011;23174;49.462;11.000;2023-02-16T03:51:41;23.85;;;20.48;;
37288;SDS011;23174;49.462;11.000;2023-02-16T03:53:41;23.65;;;20.27;;
37288;SDS011;23174;49.462;11.000;2023-02-16T03:55:42;23.40;;;19.80;;
37288;SDS011;23174;49.462;11.000;2023-02-16T03:57:45;22.90;;;19.83;;
37288;SDS011;23174;49.462;11.000;2023-02-16T03:59:45;21.33;;;18.90;;
37288;SDS011;23174;49.462;11.000;2023-02-16T04:01:46;22.52;;;19.63;;
37288;SDS011;23174;49.462;11.000;2023-02-16T04:03:46;22.25;;;19.25;;
37288;SDS011;23174;49.462;11.000;2023-02-16T04:05:47;20.58;;;18.38;;
37288;SDS011;23174;49.462;11.000;2023-02-16T04:07:47;20.92;;;18.67;;
37288;SDS011;23174;49.462;11.000;2023-02-16T04:09:48;20.90;;;18.63;;
37288;SDS011;23174;49.462;11.000;2023-02-16T04:11:48;22.10;;;19.27;;
37288;SDS011;23174;49.462;11.000;2023-02-16T04:14:07;20.73;;;17.98;;
37288;SDS011;23174;49.462;11.000;2023-02-16T04:16:08;18.58;;;16.58;;
37288;SDS011;23174;49.462;11.000;2023-02-16T04:18:08;20.50;;;17.13;;
37288;SDS011;23174;49.462;11.000;2023-02-16T04:20:10;19.67;;;17.50;;
37288;SDS011;23174;49.462;11.000;2023-02-16T04:22:13;20.20;;;17.48;;
37288;SDS011;23174;49.462;11.000;2023-02-16T04:24:13;18.40;;;16.33;;
37288;SDS011;23174;49.462;11.000;2023-02-16T04:26:14;20.48;;;16.88;;
37288;SDS011;23174;49.462;11.000;2023-02-16T04:28:14;18.92;;;16.35;;
37288;SDS011;23174;49.462;11.000;2023-02-16T04:30:16;20.17;;;17.52;;
37288;SDS011;23174;49.462;11.000;2023-02-16T04:32:21;20.45;;;16.83;;
37288;SDS011;23174;49.462;11.000;2023-02-16T04:34:22;19.88;;;17.13;;
37288;SDS011;23174;49.462;11.000;2023-02-16T04:36:22;19.90;;;17.00;;
37288;SDS011;23174;49.462;11.000;2023-02-16T04:38:23;20.20;;;16.90;;
37288;SDS011;23174;49.462;11.000;2023-02-16T04:40:25;19.73;;;17.63;;
37288;SDS011;23174;49.462;11.000;2023-02-16T04:42:25;18.50;;;16.33;;
37288;SDS011;23174;49.462;11.000;2023-02-16T04:44:26;21.00;;;17.98;;
37288;SDS011;23174;49.462;11.000;2023-02-16T04:46:26;19.92;;;16.95;;
37288;SDS011;23174;49.462;11.000;2023-02-16T04:48:27;21.70;;;18.25;;
37288;SDS011;23174;49.462;11.000;2023-02-16T04:50:27;22.45;;;18.58;;
37288;SDS011;23174;49.462;11.000;2023-02-16T04:52:28;22.77;;;18.17;;
37288;SDS011;23174;49.462;11.000;2023-02-16T04:54:29;23.20;;;19.10;;
37288;SDS011;23174;49.462;11.000;2023-02-16T04:56:30;23.40;;;18.27;;
37288;SDS011;23174;49.462;11.000;2023-02-16T04:58:31;23.38;;;18.40;;
37288;SDS011;23174;49.462;11.000;2023-02-16T05:00:32;18.60;;;16.27;;
37288;SDS011;23174;49.462;11.000;2023-02-16T05:02:32;22.75;;;17.70;;
37288;SDS011;23174;49.462;11.000;2023-02-16T05:04:33;19.00;;;16.15;;
37288;SDS011;23174;49.462;11.000;2023-02-16T05:06:34;16.20;;;14.52;;
37288;SDS011;23174;49.462;11.000;2023-02-16T05:08:35;16.45;;;14.77;;
37288;SDS011;23174;49.462;11.000;2023-02-16T05:10:36;18.13;;;15.40;;
37288;SDS011;23174;49.462;11.000;2023-02-16T05:12:36;17.67;;;14.95;;
37288;SDS011;23174;49.462;11.000;2023-02-16T05:14:55;20.27;;;16.60;;
37288;SDS011;23174;49.462;11.000;2023-02-16T05:16:56;18.88;;;16.42;;
37288;SDS011;23174;49.462;11.000;2023-02-16T05:18:57;20.35;;;16.20;;
37288;SDS011;23174;49.462;11.000;2023-02-16T05:20:57;18.83;;;16.58;;
37288;SDS011;23174;49.462;11.000;2023-02-16T05:23:17;22.33;;;17.67;;
37288;SDS011;23174;49.462;11.000;2023-02-16T05:25:17;20.30;;;16.70;;
37288;SDS011;23174;49.462;11.000;2023-02-16T05:27:19;20.05;;;16.90;;
37288;SDS011;23174;49.462;11.000;2023-02-16T05:29:22;20.75;;;17.33;;
37288;SDS011;23174;49.462;11.000;2023-02-16T05:31:23;19.98;;;17.33;;
37288;SDS011;23174;49.462;11.000;2023-02-16T05:33:24;22.55;;;17.70;;
37288;SDS011;23174;49.462;11.000;2023-02-16T05:35:25;19.30;;;16.55;;
37288;SDS011;23174;49.462;11.000;2023-02-16T05:37:25;22.48;;;17.77;;
37288;SDS011;23174;49.462;11.000;2023-02-16T05:39:26;18.35;;;16.38;;
37288;SDS011;23174;49.462;11.000;2023-02-16T05:41:27;19.85;;;17.58;;
37288;SDS011;23174;49.462;11.000;2023-02-16T05:43:27;20.23;;;16.80;;
37288;SDS011;23174;49.462;11.000;2023-02-16T05:45:28;19.08;;;16.98;;
37288;SDS011;23174;49.462;11.000;2023-02-16T05:47:29;22.42;;;17.80;;
37288;SDS011;23174;49.462;11.000;2023-02-16T05:49:29;21.10;;;16.92;;
37288;SDS011;23174;49.462;11.000;2023-02-16T05:51:30;21.10;;;17.80;;
37288;SDS011;23174;49.462;11.000;2023-02-16T05:53:31;20.63;;;17.63;;
37288;SDS011;23174;49.462;11.000;2023-02-16T05:55:32;18.10;;;16.20;;
37288;SDS011;23174;49.462;11.000;2023-02-16T05:57:32;20.65;;;16.55;;
37288;SDS011;23174;49.462;11.000;2023-02-16T05:59:34;19.63;;;17.27;;
37288;SDS011;23174;49.462;11.000;2023-02-16T06:01:35;20.00;;;17.17;;
37288;SDS011;23174;49.462;11.000;2023-02-16T06:03:35;20.45;;;16.60;;
37288;SDS011;23174;49.462;11.000;2023-02-16T06:05:36;17.25;;;15.02;;
37288;SDS011;23174;49.462;11.000;2023-02-16T06:07:36;19.67;;;15.75;;
37288;SDS011;23174;49.462;11.000;2023-02-16T06:09:37;18.63;;;15.73;;
37288;SDS011;23174;49.462;11.000;2023-02-16T06:11:38;17.85;;;16.00;;
37288;SDS011;23174;49.462;11.000;2023-02-16T06:13:38;20.08;;;16.65;;
37288;SDS011;23174;49.462;11.000;2023-02-16T06:15:39;17.20;;;15.50;;
37288;SDS011;23174;49.462;11.000;2023-02-16T06:17:39;20.27;;;17.00;;
37288;SDS011;23174;49.462;11.000;2023-02-16T06:19:40;20.42;;;17.10;;
37288;SDS011;23174;49.462;11.000;2023-02-16T06:21:41;18.85;;;16.08;;
37288;SDS011;23174;49.462;11.000;2023-02-16T06:23:41;17.35;;;15.50;;
37288;SDS011;23174;49.462;11.000;2023-02-16T06:25:43;18.45;;;15.48;;
37288;SDS011;23174;49.462;11.000;2023-02-16T06:27:47;19.88;;;15.57;;
37288;SDS011;23174;49.462;11.000;2023-02-16T06:29:49;18.05;;;15.68;;
37288;SDS011;23174;49.462;11.000;2023-02-16T06:31:49;15.85;;;14.02;;
37288;SDS011;23174;49.462;11.000;2023-02-16T06:33:50;15.93;;;14.23;;
37288;SDS011;23174;49.462;11.000;2023-02-16T06:35:51;17.45;;;15.55;;
37288;SDS011;23174;49.462;11.000;2023-02-16T06:37:52;17.83;;;14.63;;
37288;SDS011;23174;49.462;11.000;2023-02-16T06:39:52;18.08;;;16.17;;
37288;SDS011;23174;49.462;11.000;2023-02-16T06:41:53;18.67;;;15.95;;
37288;SDS011;23174;49.462;11.000;2023-02-16T06:43:54;16.83;;;15.02;;
37288;SDS011;23174;49.462;11.000;2023-02-16T06:45:54;17.58;;;15.80;;
37288;SDS011;23174;49.462;11.000;2023-02-16T06:47:55;16.77;;;14.93;;
37288;SDS011;23174;49.462;11.000;2023-02-16T06:49:55;16.95;;;15.07;;
37288;SDS011;23174;49.462;11.000;2023-02-16T06:51:56;18.67;;;15.20;;
37288;SDS011;23174;49.462;11.000;2023-02-16T06:53:56;17.45;;;14.95;;
37288;SDS011;23174;49.462;11.000;2023-02-16T06:55:57;15.80;;;14.05;;
37288;SDS011;23174;49.462;11.000;2023-02-16T06:57:57;19.75;;;16.20;;
37288;SDS011;23174;49.462;11.000;2023-02-16T06:59:58;19.55;;;17.20;;
37288;SDS011;23174;49.462;11.000;2023-02-16T07:01:59;24.98;;;18.45;;
37288;SDS011;23174;49.462;11.000;2023-02-16T07:03:59;21.52;;;18.48;;
37288;SDS011;23174;49.462;11.000;2023-02-16T07:06:00;22.17;;;19.48;;
37288;SDS011;23174;49.462;11.000;2023-02-16T07:08:01;22.42;;;18.50;;
37288;SDS011;23174;49.462;11.000;2023-02-16T07:10:01;20.50;;;16.90;;
37288;SDS011;23174;49.462;11.000;2023-02-16T07:12:02;21.33;;;14.77;;
37288;SDS011;23174;49.462;11.000;2023-02-16T07:14:03;17.85;;;15.25;;
37288;SDS011;23174;49.462;11.000;2023-02-16T07:16:04;17.85;;;14.70;;
37288;SDS011;23174;49.462;11.000;2023-02-16T07:18:05;16.80;;;14.60;;
37288;SDS011;23174;49.462;11.000;2023-02-16T07:20:06;17.05;;;15.25;;
37288;SDS011;23174;49.462;11.000;2023-02-16T07:22:07;14.95;;;13.38;;
37288;SDS011;23174;49.462;11.000;2023-02-16T07:24:07;15.82;;;13.70;;
37288;SDS011;23174;49.462;11.000;2023-02-16T07:26:08;15.80;;;14.15;;
37288;SDS011;23174;49.462;11.000;2023-02-16T07:28:08;15.80;;;14.07;;
37288;SDS011;23174;49.462;11.000;2023-02-16T07:30:09;15.05;;;13.52;;
37288;SDS011;23174;49.462;11.000;2023-02-16T07:32:10;14.30;;;12.80;;
37288;SDS011;23174;49.462;11.000;2023-02-16T07:34:11;14.02;;;12.63;;
37288;SDS011;23174;49.462;11.000;2023-02-16T07:36:17;15.60;;;12.82;;
37288;SDS011;23174;49.462;11.000;2023-02-16T07:38:20;14.40;;;12.90;;
37288;SDS011;23174;49.462;11.000;2023-02-16T07:40:21;15.25;;;13.10;;
37288;SDS011;23174;49.462;11.000;2023-02-16T07:42:22;14.55;;;12.80;;
37288;SDS011;23174;49.462;11.000;2023-02-16T07:44:22;15.13;;;13.57;;
37288;SDS011;23174;49.462;11.000;2023-02-16T07:46:23;14.85;;;13.35;;
37288;SDS011;23174;49.462;11.000;2023-02-16T07:48:23;14.90;;;13.40;;
37288;SDS011;23174;49.462;11.000;2023-02-16T07:50:24;14.75;;;13.15;;
37288;SDS011;23174;49.462;11.000;2023-02-16T07:52:25;13.68;;;12.27;;
37288;SDS011;23174;49.462;11.000;2023-02-16T07:54:30;14.55;;;13.05;;
37288;SDS011;23174;49.462;11.000;2023-02-16T07:56:31;15.38;;;13.88;;
37288;SDS011;23174;49.462;11.000;2023-02-16T07:58:33;14.38;;;12.90;;
37288;SDS011;23174;49.462;11.000;2023-02-16T08:00:33;13.98;;;12.57;;
37288;SDS011;23174;49.462;11.000;2023-02-16T08:02:34;18.35;;;12.98;;
37288;SDS011;23174;49.462;11.000;2023-02-16T08:04:35;14.95;;;13.30;;
37288;SDS011;23174;49.462;11.000;2023-02-16T08:06:35;18.60;;;13.23;;
37288;SDS011;23174;49.462;11.000;2023-02-16T08:08:36;14.68;;;13.15;;
37288;SDS011;23174;49.462;11.000;2023-02-16T08:10:37;13.57;;;12.27;;
37288;SDS011;23174;49.462;11.000;2023-02-16T08:12:38;15.00;;;13.52;;
37288;SDS011;23174;49.462;11.000;2023-02-16T08:14:39;15.82;;;13.93;;
37288;SDS011;23174;49.462;11.000;2023-02-16T08:16:39;17.15;;;14.18;;
37288;SDS011;23174;49.462;11.000;2023-02-16T08:18:40;14.63;;;13.23;;
37288;SDS011;23174;49.462;11.000;2023-02-16T08:20:41;15.38;;;13.18;;
37288;SDS011;23174;49.462;11.000;2023-02-16T08:22:41;15.02;;;13.52;;
37288;SDS011;23174;49.462;11.000;2023-02-16T08:24:42;13.82;;;12.50;;
37288;SDS011;23174;49.462;11.000;2023-02-16T08:26:43;13.88;;;12.18;;
37288;SDS011;23174;49.462;11.000;2023-02-16T08:28:44;13.90;;;12.40;;
37288;SDS011;23174;49.462;11.000;2023-02-16T08:30:46;15.02;;;12.43;;
37288;SDS011;23174;49.462;11.000;2023-02-16T08:32:47;14.00;;;12.23;;
37288;SDS011;23174;49.462;11.000;2023-02-16T08:34:49;14.23;;;12.82;;
37288;SDS011;23174;49.462;11.000;2023-02-16T08:36:52;14.52;;;13.02;;
37288;SDS011;23174;49.462;11.000;2023-02-16T08:38:55;18.48;;;13.48;;
37288;SDS011;23174;49.462;11.000;2023-02-16T08:40:56;14.50;;;12.05;;
37288;SDS011;23174;49.462;11.000;2023-02-16T08:42:56;13.23;;;12.02;;
37288;SDS011;23174;49.462;11.000;2023-02-16T08:44:57;13.88;;;12.35;;
37288;SDS011;23174;49.462;11.000;2023-02-16T08:46:58;14.98;;;12.02;;
37288;SDS011;23174;49.462;11.000;2023-02-16T08:49:00;13.57;;;12.20;;
37288;SDS011;23174;49.462;11.000;2023-02-16T08:51:02;12.52;;;11.32;;
37288;SDS011;23174;49.462;11.000;2023-02-16T08:53:05;13.50;;;12.18;;
37288;SDS011;23174;49.462;11.000;2023-02-16T08:55:06;12.70;;;11.45;;
37288;SDS011;23174;49.462;11.000;2023-02-16T08:57:07;13.55;;;12.18;;
37288;SDS011;23174;49.462;11.000;2023-02-16T08:59:07;15.45;;;13.13;;
37288;SDS011;23174;49.462;11.000;2023-02-16T09:01:08;13.45;;;12.25;;
37288;SDS011;23174;49.462;11.000;2023-02-16T09:03:10;13.93;;;12.52;;
37288;SDS011;23174;49.462;11.000;2023-02-16T09:05:11;14.65;;;12.38;;
37288;SDS011;23174;49.462;11.000;2023-02-16T09:07:12;16.73;;;12.32;;
37288;SDS011;23174;49.462;11.000;2023-02-16T09:09:13;15.93;;;12.43;;
37288;SDS011;23174;49.462;11.000;2023-02-16T09:11:14;15.43;;;12.65;;
37288;SDS011;23174;49.462;11.000;2023-02-16T09:13:15;13.25;;;11.93;;
37288;SDS011;23174;49.462;11.000;2023-02-16T09:15:16;12.95;;;11.52;;
37288;SDS011;23174;49.462;11.000;2023-02-16T09:17:16;12.40;;;11.25;;
37288;SDS011;23174;49.462;11.000;2023-02-16T09:19:19;11.93;;;10.73;;
37288;SDS011;23174;49.462;11.000;2023-02-16T09:21:21;12.63;;;11.43;;
37288;SDS011;23174;49.462;11.000;2023-02-16T09:23:24;12.23;;;11.13;;
37288;SDS011;23174;49.462;11.000;2023-02-16T09:25:25;12.90;;;11.60;;
37288;SDS011;23174;49.462;11.000;2023-02-16T09:27:25;13.25;;;11.88;;
37288;SDS011;23174;49.462;11.000;2023-02-16T09:29:26;13.50;;;12.10;;
37288;SDS011;23174;49.462;11.000;2023-02-16T09:31:28;13.93;;;12.52;;
37288;SDS011;23174;49.462;11.000;2023-02-16T09:33:29;12.85;;;11.55;;
37288;SDS011;23174;49.462;11.000;2023-02-16T09:35:30;16.65;;;11.43;;
37288;SDS011;23174;49.462;11.000;2023-02-16T09:37:31;13.30;;;11.93;;
37288;SDS011;23174;49.462;11.000;2023-02-16T09:39:32;14.82;;;11.43;;
37288;SDS011;23174;49.462;11.000;2023-02-16T09:41:53;14.52;;;11.93;;
37288;SDS011;23174;49.462;11.000;2023-02-16T09:46:29;10.57;;;9.13;;
37288;SDS011;23174;49.462;11.000;2023-02-16T09:48:33;11.02;;;9.65;;
37288;SDS011;23174;49.462;11.000;2023-02-16T09:50:41;13.63;;;11.32;;
37288;SDS011;23174;49.462;11.000;2023-02-16T09:52:48;10.70;;;9.65;;
37288;SDS011;23174;49.462;11.000;2023-02-16T09:54:57;16.25;;;10.77;;
37288;SDS011;23174;49.462;11.000;2023-02-16T09:57:04;13.40;;;10.60;;
37288;SDS011;23174;49.462;11.000;2023-02-16T09:59:13;11.43;;;10.25;;
37288;SDS011;23174;49.462;11.000;2023-02-16T10:08:48;12.32;;;11.00;;
37288;SDS011;23174;49.462;11.000;2023-02-16T10:11:02;13.25;;;10.18;;
37288;SDS011;23174;49.462;11.000;2023-02-16T10:15:52;12.27;;;10.60;;
37288;SDS011;23174;49.462;11.000;2023-02-16T10:18:29;11.43;;;10.30;;
37288;SDS011;23174;49.462;11.000;2023-02-16T10:20:33;12.18;;;10.88;;
37288;SDS011;23174;49.462;11.000;2023-02-16T10:25:14;12.02;;;10.73;;
37288;SDS011;23174;49.462;11.000;2023-02-16T10:27:26;13.23;;;10.38;;
37288;SDS011;23174;49.462;11.000;2023-02-16T10:29:32;14.05;;;10.57;;
37288;SDS011;23174;49.462;11.000;2023-02-16T10:31:40;10.90;;;9.55;;
37288;SDS011;23174;49.462;11.000;2023-02-16T10:36:02;12.52;;;10.82;;
37288;SDS011;23174;49.462;11.000;2023-02-16T10:41:31;11.07;;;9.95;;
37288;SDS011;23174;49.462;11.000;2023-02-16T10:46:04;12.95;;;10.45;;
37288;SDS011;23174;49.462;11.000;2023-02-16T10:48:07;11.73;;;10.50;;
37288;SDS011;23174;49.462;11.000;2023-02-16T10:52:33;10.98;;;9.98;;
37288;SDS011;23174;49.462;11.000;2023-02-16T10:54:37;11.45;;;9.93;;
37288;SDS011;23174;49.462;11.000;2023-02-16T10:58:51;11.90;;;10.73;;
37288;SDS011;23174;49.462;11.000;2023-02-16T11:00:58;13.35;;;10.65;;
37288;SDS011;23174;49.462;11.000;2023-02-16T11:03:05;11.43;;;9.20;;
37288;SDS011;23174;49.462;11.000;2023-02-16T11:05:31;14.05;;;10.38;;
37288;SDS011;23174;49.462;11.000;2023-02-16T11:07:37;15.05;;;11.43;;
37288;SDS011;23174;49.462;11.000;2023-02-16T11:10:00;13.63;;;11.02;;
37288;SDS011;23174;49.462;11.000;2023-02-16T11:12:30;11.75;;;8.93;;
37288;SDS011;23174;49.462;11.000;2023-02-16T11:14:31;10.80;;;9.70;;
37288;SDS011;23174;49.462;11.000;2023-02-16T11:16:32;11.48;;;10.27;;
37288;SDS011;23174;49.462;11.000;2023-02-16T11:18:35;16.40;;;10.00;;
37288;SDS011;23174;49.462;11.000;2023-02-16T11:22:41;11.57;;;10.40;;
37288;SDS011;23174;49.462;11.000;2023-02-16T11:24:42;10.82;;;9.27;;
37288;SDS011;23174;49.462;11.000;2023-02-16T11:26:42;10.75;;;9.50;;
37288;SDS011;23174;49.462;11.000;2023-02-16T11:28:44;11.63;;;10.15;;
37288;SDS011;23174;49.462;11.000;2023-02-16T11:30:47;14.10;;;11.07;;
37288;SDS011;23174;49.462;11.000;2023-02-16T11:32:48;12.05;;;10.85;;
37288;SDS011;23174;49.462;11.000;2023-02-16T11:34:50;13.25;;;11.18;;
37288;SDS011;23174;49.462;11.000;2023-02-16T11:36:59;11.88;;;10.43;;
37288;SDS011;23174;49.462;11.000;2023-02-16T11:39:24;11.48;;;10.27;;
37288;SDS011;23174;49.462;11.000;2023-02-16T11:41:29;14.27;;;11.38;;
37288;SDS011;23174;49.462;11.000;2023-02-16T11:43:34;13.93;;;11.02;;
37288;SDS011;23174;49.462;11.000;2023-02-16T11:45:37;13.43;;;10.15;;
37288;SDS011;23174;49.462;11.000;2023-02-16T11:47:38;13.43;;;10.65;;
37288;SDS011;23174;49.462;11.000;2023-02-16T11:49:40;11.07;;;9.95;;
37288;SDS011;23174;49.462;11.000;2023-02-16T11:51:41;12.55;;;11.07;;
37288;SDS011;23174;49.462;11.000;2023-02-16T11:53:42;12.77;;;10.52;;
37288;SDS011;23174;49.462;11.000;2023-02-16T11:55:46;10.52;;;9.35;;
37288;SDS011;23174;49.462;11.000;2023-02-16T11:57:47;12.73;;;10.55;;
37288;SDS011;23174;49.462;11.000;2023-02-16T11:59:48;14.18;;;11.23;;
37288;SDS011;23174;49.462;11.000;2023-02-16T12:02:01;12.63;;;11.20;;
37288;SDS011;23174;49.462;11.000;2023-02-16T12:09:27;11.77;;;10.60;;
37288;SDS011;23174;49.462;11.000;2023-02-16T12:11:50;10.88;;;9.90;;
37288;SDS011;23174;49.462;11.000;2023-02-16T12:25:49;11.77;;;9.80;;
37288;SDS011;23174;49.462;11.000;2023-02-16T12:27:59;10.35;;;8.65;;
37288;SDS011;23174;49.462;11.000;2023-02-16T12:30:33;11.40;;;9.70;;
37288;SDS011;23174;49.462;11.000;2023-02-16T12:37:57;9.05;;;8.00;;
37288;SDS011;23174;49.462;11.000;2023-02-16T12:45:26;12.75;;;8.85;;
37288;SDS011;23174;49.462;11.000;2023-02-16T12:47:35;10.98;;;8.82;;
37288;SDS011;23174;49.462;11.000;2023-02-16T12:52:02;13.30;;;9.20;;
37288;SDS011;23174;49.462;11.000;2023-02-16T12:56:20;12.73;;;8.82;;
37288;SDS011;23174;49.462;11.000;2023-02-16T13:00:41;9.50;;;7.97;;
37288;SDS011;23174;49.462;11.000;2023-02-16T13:02:49;8.23;;;7.40;;
37288;SDS011;23174;49.462;11.000;2023-02-16T13:05:05;9.15;;;7.45;;
37288;SDS011;23174;49.462;11.000;2023-02-16T13:07:18;8.80;;;7.90;;
37288;SDS011;23174;49.462;11.000;2023-02-16T13:14:36;9.48;;;7.68;;
37288;SDS011;23174;49.462;11.000;2023-02-16T13:16:45;10.52;;;7.55;;
37288;SDS011;23174;49.462;11.000;2023-02-16T13:18:55;13.02;;;7.60;;
37288;SDS011;23174;49.462;11.000;2023-02-16T13:21:09;10.40;;;8.15;;
37288;SDS011;23174;49.462;11.000;2023-02-16T13:28:26;12.52;;;6.60;;
37288;SDS011;23174;49.462;11.000;2023-02-16T13:38:22;8.02;;;6.88;;